createdAt,value
2024-05-09T00:02:27.711Z,36.80
2024-05-09T00:09:29.324Z,30.45
2024-05-09T00:16:30.880Z,27.45
2024-05-09T00:23:32.670Z,27.95
2024-05-09T00:30:36.530Z,27.08
2024-05-09T00:37:39.008Z,33.42
2024-05-09T00:44:40.539Z,32.30
2024-05-09T00:51:42.627Z,33.92
2024-05-09T00:58:44.326Z,30.85
2024-05-09T01:05:45.996Z,28.17
2024-05-09T01:12:47.558Z,22.80
2024-05-09T01:19:49.129Z,25.85
2024-05-09T01:26:50.970Z,22.25
2024-05-09T01:33:52.566Z,23.13
2024-05-09T01:40:54.501Z,26.05
2024-05-09T01:47:56.344Z,26.88
2024-05-09T01:54:58.402Z,28.25
2024-05-09T02:02:00.967Z,28.65
2024-05-09T02:09:02.735Z,30.58
2024-05-09T02:16:04.624Z,29.13
2024-05-09T02:23:06.950Z,27.13
2024-05-09T02:30:18.696Z,27.15
2024-05-09T02:37:27.689Z,30.45
2024-05-09T02:44:29.260Z,30.75
2024-05-09T02:51:30.827Z,27.13
2024-05-09T02:58:32.380Z,23.40
2024-05-09T03:05:34.285Z,23.50
2024-05-09T03:12:39.043Z,21.70
2024-05-09T03:19:40.814Z,21.83
2024-05-09T03:27:01.056Z,24.33
2024-05-09T03:34:02.891Z,24.75
2024-05-09T03:41:04.949Z,26.70
2024-05-09T04:13:45.676Z,21.98
2024-05-09T04:20:56.867Z,21.02
2024-05-09T04:27:58.484Z,22.75
2024-05-09T04:51:44.547Z,27.65
2024-05-09T04:58:46.170Z,28.45
2024-05-09T05:05:47.815Z,26.30
2024-05-09T05:13:07.777Z,23.33
2024-05-09T05:20:15.045Z,22.40
2024-05-09T05:35:46.385Z,21.00
2024-05-09T05:42:47.943Z,21.40
2024-05-09T05:49:49.607Z,19.73
2024-05-09T06:05:13.525Z,23.35
2024-05-09T06:12:15.267Z,24.38
2024-05-09T06:19:43.490Z,24.70
2024-05-09T06:26:46.457Z,26.80
2024-05-09T06:34:13.710Z,32.28
2024-05-09T06:41:15.408Z,34.15
2024-05-09T06:48:21.034Z,37.60
2024-05-09T06:55:23.198Z,34.63
2024-05-09T07:02:24.844Z,30.63
2024-05-09T07:09:26.402Z,30.45
2024-05-09T07:16:27.961Z,37.17
2024-05-09T07:23:29.550Z,36.40
2024-05-09T07:30:34.298Z,23.27
2024-05-09T07:37:36.628Z,23.88
2024-05-09T07:44:38.227Z,20.90
2024-05-09T07:58:49.600Z,23.48
2024-05-09T08:05:51.999Z,22.67
2024-05-09T08:12:54.105Z,20.45
2024-05-09T08:19:56.291Z,21.95
2024-05-09T08:26:57.872Z,26.38
2024-05-09T08:33:59.527Z,27.27
2024-05-09T08:49:24.923Z,19.45
2024-05-09T08:56:28.449Z,19.98
2024-05-09T09:03:32.668Z,21.73
2024-05-09T09:10:35.342Z,19.40
2024-05-09T09:17:37.170Z,19.63
2024-05-09T09:24:38.853Z,19.35
2024-05-09T09:31:42.155Z,21.38
2024-05-09T09:38:46.710Z,25.88
2024-05-09T09:45:53.144Z,24.00
2024-05-09T10:01:17.670Z,20.70
2024-05-09T10:08:19.981Z,20.35
2024-05-09T10:32:18.819Z,22.90
2024-05-09T10:39:21.564Z,21.75
2024-05-09T10:46:24.356Z,24.70
2024-05-09T11:10:27.884Z,20.20
2024-05-09T11:17:38.567Z,19.83
2024-05-09T11:33:02.788Z,19.20
2024-05-09T11:40:13.762Z,19.70
2024-05-09T11:47:22.811Z,19.42
2024-05-09T12:11:23.431Z,20.95
2024-05-09T12:18:25.106Z,21.23
2024-05-09T12:25:26.777Z,19.40
2024-05-09T12:32:28.442Z,19.38
2024-05-09T12:39:30.168Z,19.15
2024-05-09T12:46:32.134Z,21.42
2024-05-09T12:53:33.751Z,22.33
2024-05-09T13:00:35.363Z,20.27
2024-05-09T13:07:38.612Z,21.38
2024-05-09T13:14:40.182Z,23.45
2024-05-09T13:21:41.873Z,21.20
2024-05-09T13:28:43.448Z,21.20
2024-05-09T13:35:49.081Z,23.00
2024-05-09T13:42:52.302Z,22.63
2024-05-09T13:58:16.871Z,20.50
2024-05-09T14:05:18.691Z,21.15
2024-05-09T14:20:48.386Z,20.92
2024-05-09T14:27:50.081Z,20.05
2024-05-09T14:34:51.678Z,20.60
2024-05-09T14:41:53.245Z,20.00
2024-05-09T14:48:55.582Z,21.25
2024-05-09T14:55:57.832Z,23.10
2024-05-09T15:02:59.558Z,21.88
2024-05-09T15:10:05.782Z,22.40
2024-05-09T15:17:10.669Z,20.98
2024-05-09T15:24:12.200Z,21.35
2024-05-09T15:31:13.764Z,19.90
2024-05-09T15:38:16.008Z,20.08
2024-05-09T15:45:20.012Z,19.30
2024-05-09T15:52:21.623Z,18.88
2024-05-09T15:59:23.223Z,18.55
2024-05-09T16:06:24.755Z,19.98
2024-05-09T16:13:26.315Z,20.27
2024-05-09T16:20:37.264Z,23.73
2024-05-09T16:36:10.462Z,23.92
2024-05-09T16:43:13.363Z,23.65
2024-05-09T16:50:29.472Z,24.88
2024-05-09T16:57:34.584Z,21.98
2024-05-09T17:21:32.272Z,19.20
2024-05-09T17:28:33.958Z,19.83
2024-05-09T17:43:58.350Z,29.85
2024-05-09T17:50:59.930Z,31.98
2024-05-09T17:58:01.828Z,25.85
2024-05-09T18:05:04.081Z,25.45
2024-05-09T18:12:06.244Z,23.00
2024-05-09T18:19:08.139Z,23.55
2024-05-09T18:26:10.916Z,26.58
2024-05-09T18:33:12.983Z,31.98
2024-05-09T18:40:21.130Z,26.95
2024-05-09T18:47:29.903Z,29.45
2024-05-09T18:54:31.590Z,27.30
2024-05-09T19:10:01.091Z,21.98
2024-05-09T19:17:02.811Z,25.70
2024-05-09T19:24:04.715Z,43.33
2024-05-09T19:39:28.172Z,25.85
2024-05-09T19:46:29.882Z,23.80
2024-05-09T19:53:31.457Z,24.70
2024-05-09T20:00:39.592Z,25.08
2024-05-09T20:07:43.548Z,22.45
2024-05-09T20:14:45.338Z,25.88
2024-05-09T20:21:46.898Z,28.48
2024-05-09T20:28:48.453Z,28.30
2024-05-09T20:35:49.994Z,23.50
2024-05-09T20:42:51.630Z,26.38
2024-05-09T20:49:53.243Z,27.25
2024-05-09T20:56:54.948Z,27.20
2024-05-09T21:03:56.612Z,30.88
2024-05-09T21:10:59.070Z,28.30
2024-05-09T21:18:00.757Z,32.85
2024-05-09T21:42:01.905Z,24.80
2024-05-09T21:49:03.530Z,26.77
2024-05-09T21:56:05.434Z,28.92
2024-05-09T22:03:07.843Z,35.78
2024-05-09T22:10:19.695Z,29.33
2024-05-09T22:17:24.570Z,36.33
2024-05-09T22:24:26.199Z,34.40
2024-05-09T22:31:28.059Z,27.25
2024-05-09T22:38:29.604Z,27.70
2024-05-09T22:45:31.192Z,29.98
2024-05-09T22:52:32.757Z,28.35
2024-05-09T22:59:34.330Z,28.58
2024-05-09T23:06:35.888Z,30.88
2024-05-09T23:13:37.438Z,27.92
2024-05-09T23:20:40.171Z,30.23
2024-05-09T23:27:42.071Z,26.73
2024-05-09T23:34:43.731Z,29.63
2024-05-09T23:41:45.308Z,27.70
2024-05-09T23:48:47.009Z,33.92
2024-05-09T23:55:48.614Z,35.65
